createdAt,value
2017-11-23T00:01:51.466Z,10.23
2017-11-23T00:04:18.378Z,10.30
2017-11-23T00:06:44.620Z,9.97
2017-11-23T00:09:10.806Z,9.83
2017-11-23T00:11:36.996Z,10.63
2017-11-23T00:14:03.214Z,11.07
2017-11-23T00:16:29.395Z,9.60
2017-11-23T00:18:56.370Z,12.00
2017-11-23T00:21:22.534Z,10.90
2017-11-23T00:23:48.914Z,10.87
2017-11-23T00:26:15.834Z,10.57
2017-11-23T00:28:42.024Z,9.40
2017-11-23T00:31:08.227Z,9.50
2017-11-23T00:33:34.425Z,9.37
2017-11-23T00:36:00.596Z,9.80
2017-11-23T00:38:27.535Z,8.77
2017-11-23T00:40:54.490Z,9.10
2017-11-23T00:43:20.697Z,8.13
2017-11-23T00:45:46.922Z,7.80
2017-11-23T00:48:13.099Z,8.17
2017-11-23T00:50:40.012Z,6.80
2017-11-23T00:53:06.214Z,7.83
2017-11-23T00:55:32.442Z,7.50
2017-11-23T00:57:58.619Z,7.20
2017-11-23T01:00:24.816Z,8.20
2017-11-23T01:02:50.986Z,7.90
2017-11-23T01:05:17.179Z,8.30
2017-11-23T01:07:43.445Z,7.43
2017-11-23T01:10:09.623Z,7.70
2017-11-23T01:12:36.570Z,8.00
2017-11-23T01:15:03.514Z,7.40
2017-11-23T01:17:30.439Z,7.53
2017-11-23T01:19:56.628Z,7.23
2017-11-23T01:22:28.951Z,7.07
2017-11-23T01:24:55.309Z,7.77
2017-11-23T01:27:22.252Z,7.17
2017-11-23T01:29:48.433Z,6.63
2017-11-23T01:32:14.607Z,7.33
2017-11-23T01:34:40.783Z,7.03
2017-11-23T01:37:07.731Z,6.90
2017-11-23T01:39:34.672Z,7.50
2017-11-23T01:42:01.601Z,7.13
2017-11-23T01:44:27.794Z,6.60
2017-11-23T01:46:53.970Z,6.60
2017-11-23T01:49:20.917Z,5.90
2017-11-23T01:51:47.114Z,7.80
2017-11-23T01:54:13.294Z,7.23
2017-11-23T01:56:39.469Z,6.20
2017-11-23T01:59:05.702Z,6.13
2017-11-23T02:01:31.898Z,6.70
2017-11-23T02:03:58.072Z,6.87
2017-11-23T02:06:26.145Z,7.40
2017-11-23T02:08:53.129Z,6.67
2017-11-23T02:11:19.320Z,6.33
2017-11-23T02:13:45.567Z,5.33
2017-11-23T02:16:11.746Z,6.13
2017-11-23T02:18:37.973Z,6.10
2017-11-23T02:21:04.190Z,6.10
2017-11-23T02:23:30.383Z,7.17
2017-11-23T02:25:56.674Z,5.63
2017-11-23T02:28:22.894Z,6.20
2017-11-23T02:30:49.067Z,7.30
2017-11-23T02:33:15.298Z,5.73
2017-11-23T02:35:41.492Z,6.67
2017-11-23T02:38:07.692Z,6.70
2017-11-23T02:40:34.607Z,6.27
2017-11-23T02:43:00.920Z,5.70
2017-11-23T02:45:27.332Z,6.13
2017-11-23T02:47:53.534Z,7.03
2017-11-23T02:50:19.776Z,5.60
2017-11-23T02:52:46.720Z,6.27
2017-11-23T02:55:13.652Z,7.30
2017-11-23T02:57:39.858Z,5.03
2017-11-23T03:00:06.027Z,5.60
2017-11-23T03:02:36.080Z,5.90
2017-11-23T03:05:02.285Z,5.50
2017-11-23T03:07:29.233Z,5.77
2017-11-23T03:09:55.497Z,5.47
2017-11-23T03:12:21.685Z,5.77
2017-11-23T03:14:47.903Z,4.63
2017-11-23T03:17:14.082Z,5.70
2017-11-23T03:19:41.013Z,4.60
2017-11-23T03:22:07.187Z,5.40
2017-11-23T03:24:33.366Z,5.70
2017-11-23T03:26:59.718Z,5.47
2017-11-23T03:29:25.907Z,5.70
2017-11-23T03:31:52.107Z,5.17
2017-11-23T03:34:19.026Z,5.77
2017-11-23T03:36:45.210Z,5.40
2017-11-23T03:39:11.395Z,5.40
2017-11-23T03:41:37.918Z,5.40
2017-11-23T03:44:04.090Z,5.70
2017-11-23T03:46:30.271Z,5.87
2017-11-23T03:48:56.455Z,5.30
2017-11-23T03:51:22.616Z,4.87
2017-11-23T03:53:48.810Z,4.67
2017-11-23T03:56:15.027Z,5.00
2017-11-23T03:58:41.207Z,4.50
2017-11-23T04:01:08.166Z,4.50
2017-11-23T04:03:35.092Z,5.27
2017-11-23T04:06:01.278Z,5.07
2017-11-23T04:08:27.460Z,5.20
2017-11-23T04:10:54.593Z,4.47
2017-11-23T04:13:20.779Z,4.70
2017-11-23T04:15:46.978Z,4.40
2017-11-23T04:18:13.152Z,4.63
2017-11-23T04:20:39.319Z,4.93
2017-11-23T04:23:05.493Z,4.30
2017-11-23T04:25:31.669Z,5.10
2017-11-23T04:27:58.057Z,3.73
2017-11-23T04:30:24.999Z,4.97
2017-11-23T04:32:51.945Z,4.70
2017-11-23T04:35:18.151Z,4.20
2017-11-23T04:37:44.321Z,5.13
2017-11-23T04:40:10.527Z,5.70
2017-11-23T04:42:36.711Z,3.83
2017-11-23T04:45:03.618Z,4.00
2017-11-23T04:47:30.570Z,3.73
2017-11-23T04:49:56.762Z,4.47
2017-11-23T04:52:22.954Z,3.80
2017-11-23T04:54:49.155Z,4.37
2017-11-23T04:57:15.329Z,4.27
2017-11-23T04:59:41.565Z,4.47
2017-11-23T05:02:07.734Z,4.77
2017-11-23T05:04:33.886Z,3.27
2017-11-23T05:07:00.062Z,4.50
2017-11-23T05:09:26.982Z,4.70
2017-11-23T05:11:53.229Z,4.33
2017-11-23T05:14:19.411Z,4.50
2017-11-23T05:16:45.693Z,3.77
2017-11-23T05:19:11.875Z,4.00
2017-11-23T05:21:38.067Z,3.73
2017-11-23T05:24:04.274Z,3.63
2017-11-23T05:26:30.442Z,4.83
2017-11-23T05:28:56.909Z,4.10
2017-11-23T05:31:23.822Z,5.60
2017-11-23T05:33:50.026Z,5.50
2017-11-23T05:36:16.291Z,4.60
2017-11-23T05:38:44.146Z,4.03
2017-11-23T05:41:11.085Z,3.90
2017-11-23T05:43:37.333Z,3.77
2017-11-23T05:46:04.261Z,5.03
2017-11-23T05:48:30.427Z,4.63
2017-11-23T05:50:56.601Z,5.13
2017-11-23T05:53:22.820Z,3.80
2017-11-23T05:55:49.022Z,3.50
2017-11-23T05:58:15.226Z,3.93
2017-11-23T06:00:41.438Z,4.47
2017-11-23T06:03:07.647Z,4.33
2017-11-23T06:05:34.621Z,4.30
2017-11-23T06:08:01.553Z,4.10
2017-11-23T06:10:28.491Z,4.03
2017-11-23T06:12:54.797Z,4.43
2017-11-23T06:15:21.010Z,4.10
2017-11-23T06:17:47.202Z,3.60
2017-11-23T06:20:13.413Z,3.40
2017-11-23T06:22:39.619Z,5.00
2017-11-23T06:25:05.790Z,5.10
2017-11-23T06:27:31.988Z,3.97
2017-11-23T06:29:58.403Z,3.90
2017-11-23T06:32:24.596Z,3.57
2017-11-23T06:34:50.828Z,4.50
2017-11-23T06:37:17.060Z,4.60
2017-11-23T06:39:43.253Z,5.20
2017-11-23T06:42:09.475Z,4.47
2017-11-23T06:44:35.721Z,5.40
2017-11-23T06:47:01.977Z,7.30
2017-11-23T06:49:28.183Z,4.47
2017-11-23T06:51:54.408Z,4.30
2017-11-23T06:54:21.340Z,4.17
2017-11-23T06:56:48.281Z,4.07
2017-11-23T06:59:14.508Z,4.17
2017-11-23T07:01:40.714Z,4.00
2017-11-23T07:04:06.974Z,4.23
2017-11-23T07:06:33.208Z,4.20
2017-11-23T07:08:59.425Z,4.10
2017-11-23T07:11:25.627Z,4.60
2017-11-23T07:13:51.905Z,4.27
2017-11-23T07:16:18.110Z,4.47
2017-11-23T07:18:44.341Z,4.80
2017-11-23T07:21:10.558Z,4.77
2017-11-23T07:23:37.482Z,4.67
2017-11-23T07:26:04.419Z,4.07
2017-11-23T07:28:31.393Z,4.50
2017-11-23T07:30:57.836Z,4.10
2017-11-23T07:33:24.772Z,4.17
2017-11-23T07:35:50.982Z,4.80
2017-11-23T07:38:17.164Z,4.97
2017-11-23T07:40:44.091Z,3.97
2017-11-23T07:43:10.291Z,4.07
2017-11-23T07:45:36.498Z,4.50
2017-11-23T07:48:02.674Z,4.90
2017-11-23T07:50:28.867Z,4.47
2017-11-23T07:52:55.059Z,5.30
2017-11-23T07:55:21.990Z,5.00
2017-11-23T07:57:48.182Z,3.83
2017-11-23T08:00:14.375Z,3.80
2017-11-23T08:02:40.564Z,4.50
2017-11-23T08:05:06.791Z,3.70
2017-11-23T08:07:33.019Z,4.03
2017-11-23T08:09:59.246Z,4.17
2017-11-23T08:12:25.462Z,4.27
2017-11-23T08:14:52.483Z,4.27
2017-11-23T08:17:18.659Z,5.23
2017-11-23T08:19:45.594Z,3.87
2017-11-23T08:22:12.577Z,3.93
2017-11-23T08:24:38.803Z,5.53
2017-11-23T08:27:05.030Z,4.40
2017-11-23T08:29:31.933Z,4.73
2017-11-23T08:31:58.905Z,5.30
2017-11-23T08:34:25.118Z,4.67
2017-11-23T08:36:51.350Z,4.40
2017-11-23T08:39:17.555Z,4.30
2017-11-23T08:41:43.757Z,3.60
2017-11-23T08:44:10.688Z,3.50
2017-11-23T08:46:36.902Z,4.67
2017-11-23T08:49:03.113Z,4.67
2017-11-23T08:51:29.304Z,5.57
2017-11-23T08:53:56.268Z,3.93
2017-11-23T08:56:22.491Z,4.80
2017-11-23T08:58:48.642Z,4.33
2017-11-23T09:01:17.901Z,4.93
2017-11-23T09:03:44.093Z,4.60
2017-11-23T09:06:10.265Z,4.23
2017-11-23T09:08:36.461Z,4.60
2017-11-23T09:11:02.678Z,4.50
2017-11-23T09:13:29.876Z,5.00
2017-11-23T09:15:56.887Z,4.93
2017-11-23T09:18:23.814Z,4.50
2017-11-23T09:20:49.999Z,5.80
2017-11-23T09:23:16.191Z,4.27
2017-11-23T09:25:43.164Z,5.43
2017-11-23T09:28:09.341Z,6.70
2017-11-23T09:30:36.278Z,5.27
2017-11-23T09:33:02.666Z,7.80
2017-11-23T09:35:29.605Z,5.57
2017-11-23T09:37:56.554Z,5.03
2017-11-23T09:40:22.793Z,6.10
2017-11-23T09:42:48.962Z,5.00
2017-11-23T09:45:15.155Z,4.73
2017-11-23T09:47:41.355Z,5.77
2017-11-23T09:50:07.587Z,6.13
2017-11-23T09:52:33.828Z,6.07
2017-11-23T09:55:00.054Z,5.00
2017-11-23T09:57:26.238Z,5.27
2017-11-23T09:59:53.163Z,5.20
2017-11-23T10:02:19.370Z,5.87
2017-11-23T10:04:45.534Z,5.40
2017-11-23T10:07:11.699Z,5.53
2017-11-23T10:09:37.905Z,6.50
2017-11-23T10:12:04.116Z,5.30
2017-11-23T10:14:36.559Z,5.40
2017-11-23T10:17:02.832Z,5.20
2017-11-23T10:19:29.033Z,14.70
2017-11-23T10:21:55.254Z,5.50
2017-11-23T10:24:21.434Z,5.57
2017-11-23T10:26:47.601Z,4.67
2017-11-23T10:29:14.523Z,5.07
2017-11-23T10:31:40.730Z,4.67
2017-11-23T10:34:07.824Z,5.47
2017-11-23T10:36:34.021Z,4.70
2017-11-23T10:39:00.262Z,5.23
2017-11-23T10:41:26.434Z,4.90
2017-11-23T10:43:52.605Z,5.00
2017-11-23T10:46:27.119Z,4.30
2017-11-23T10:48:53.309Z,5.00
2017-11-23T10:51:19.483Z,5.33
2017-11-23T10:53:46.222Z,5.00
2017-11-23T10:56:12.446Z,4.50
2017-11-23T10:58:39.085Z,5.03
2017-11-23T11:01:05.413Z,4.77
2017-11-23T11:03:31.573Z,5.20
2017-11-23T11:05:58.496Z,4.57
2017-11-23T11:08:26.064Z,5.00
2017-11-23T11:10:52.678Z,4.50
2017-11-23T11:13:18.867Z,5.93
2017-11-23T11:15:45.069Z,4.60
2017-11-23T11:18:11.354Z,4.40
2017-11-23T11:20:37.526Z,4.77
2017-11-23T11:23:03.689Z,5.23
2017-11-23T11:25:30.636Z,5.20
2017-11-23T11:27:57.557Z,4.90
2017-11-23T11:30:23.785Z,4.50
2017-11-23T11:32:49.990Z,4.50
2017-11-23T11:35:16.230Z,5.30
2017-11-23T11:37:42.425Z,4.57
2017-11-23T11:40:09.363Z,4.13
2017-11-23T11:42:35.545Z,5.70
2017-11-23T11:45:01.756Z,5.00
2017-11-23T11:47:28.687Z,4.67
2017-11-23T11:49:54.903Z,4.53
2017-11-23T11:52:21.115Z,4.13
2017-11-23T11:54:47.291Z,5.33
2017-11-23T11:57:13.471Z,5.17
2017-11-23T11:59:39.664Z,4.30
2017-11-23T12:02:06.600Z,4.90
2017-11-23T12:04:32.803Z,5.00
2017-11-23T12:06:58.970Z,4.83
2017-11-23T12:09:25.197Z,4.60
2017-11-23T12:11:51.383Z,4.53
2017-11-23T12:14:25.888Z,5.97
2017-11-23T12:16:55.130Z,4.10
2017-11-23T12:19:22.135Z,5.47
2017-11-23T12:21:52.947Z,4.90
2017-11-23T12:24:27.393Z,4.90
2017-11-23T12:26:54.334Z,5.00
2017-11-23T12:29:33.676Z,5.20
2017-11-23T12:32:00.617Z,5.10
2017-11-23T12:34:27.545Z,5.10
2017-11-23T12:36:54.310Z,5.27
2017-11-23T12:39:20.486Z,4.77
2017-11-23T12:41:46.687Z,4.17
2017-11-23T12:44:12.921Z,5.00
2017-11-23T12:46:39.866Z,4.70
2017-11-23T12:49:06.100Z,4.87
2017-11-23T12:51:33.018Z,4.80
2017-11-23T12:53:59.217Z,6.13
2017-11-23T12:56:25.413Z,5.60
2017-11-23T12:58:51.597Z,5.40
2017-11-23T13:01:17.812Z,4.40
2017-11-23T13:03:43.973Z,4.13
2017-11-23T13:06:10.158Z,4.57
2017-11-23T13:08:36.343Z,4.97
2017-11-23T13:11:02.554Z,4.63
2017-11-23T13:13:28.738Z,4.60
2017-11-23T13:15:54.934Z,4.30
2017-11-23T13:18:21.101Z,5.67
2017-11-23T13:20:47.377Z,4.70
2017-11-23T13:23:14.331Z,4.40
2017-11-23T13:25:40.511Z,4.33
2017-11-23T13:28:06.714Z,3.80
2017-11-23T13:30:32.908Z,4.13
2017-11-23T13:32:59.866Z,3.80
2017-11-23T13:35:26.818Z,3.90
2017-11-23T13:37:53.294Z,5.17
2017-11-23T13:40:19.482Z,4.90
2017-11-23T13:42:45.671Z,5.20
2017-11-23T13:45:11.846Z,5.00
2017-11-23T13:47:38.042Z,5.20
2017-11-23T13:50:04.304Z,4.33
2017-11-23T13:52:30.520Z,5.20
2017-11-23T13:54:56.715Z,4.37
2017-11-23T13:57:22.909Z,4.50
2017-11-23T13:59:49.101Z,4.37
2017-11-23T14:02:15.271Z,4.50
2017-11-23T14:04:41.499Z,4.30
2017-11-23T14:07:07.711Z,4.53
2017-11-23T14:09:33.919Z,4.20
2017-11-23T14:12:00.126Z,4.60
2017-11-23T14:14:26.348Z,4.33
2017-11-23T14:16:52.565Z,4.77
2017-11-23T14:19:18.750Z,4.13
2017-11-23T14:21:45.295Z,4.63
2017-11-23T14:24:11.499Z,4.73
2017-11-23T14:26:38.451Z,5.03
2017-11-23T14:29:05.410Z,4.17
2017-11-23T14:31:31.593Z,4.23
2017-11-23T14:33:57.764Z,4.37
2017-11-23T14:36:24.815Z,4.70
2017-11-23T14:38:51.767Z,5.07
2017-11-23T14:41:17.993Z,5.27
2017-11-23T14:43:46.779Z,5.40
2017-11-23T14:46:12.987Z,5.60
2017-11-23T14:48:40.093Z,5.20
2017-11-23T14:51:10.052Z,4.93
2017-11-23T14:53:38.367Z,5.57
2017-11-23T14:56:05.381Z,4.57
2017-11-23T14:58:31.566Z,6.23
2017-11-23T15:00:57.758Z,5.53
2017-11-23T15:03:25.228Z,5.03
2017-11-23T15:05:51.445Z,6.20
2017-11-23T15:08:22.833Z,5.90
2017-11-23T15:10:50.577Z,6.80
2017-11-23T15:13:19.000Z,6.30
2017-11-23T15:15:47.697Z,6.43
2017-11-23T15:18:13.932Z,5.73
2017-11-23T15:20:40.106Z,7.10
2017-11-23T15:23:06.395Z,7.20
2017-11-23T15:25:34.049Z,4.87
2017-11-23T15:28:01.226Z,5.63
2017-11-23T15:30:27.449Z,5.30
2017-11-23T15:32:54.512Z,5.93
2017-11-23T15:35:21.256Z,5.63
2017-11-23T15:37:47.435Z,4.93
2017-11-23T15:40:13.824Z,6.40
2017-11-23T15:42:40.022Z,5.77
2017-11-23T15:45:06.181Z,5.57
2017-11-23T15:47:32.516Z,5.30
2017-11-23T15:49:58.697Z,5.93
2017-11-23T15:52:24.874Z,6.50
2017-11-23T15:54:51.050Z,11.70
2017-11-23T15:57:17.278Z,8.93
2017-11-23T15:59:44.198Z,8.17
2017-11-23T16:02:10.377Z,7.47
2017-11-23T16:04:37.321Z,5.63
2017-11-23T16:07:04.254Z,7.67
2017-11-23T16:09:31.215Z,7.40
2017-11-23T16:11:57.418Z,6.17
2017-11-23T16:14:23.603Z,6.27
2017-11-23T16:16:49.811Z,7.80
2017-11-23T16:19:16.025Z,6.20
2017-11-23T16:21:42.230Z,6.67
2017-11-23T16:24:08.492Z,6.60
2017-11-23T16:26:34.693Z,7.13
2017-11-23T16:29:01.834Z,8.27
2017-11-23T16:31:28.090Z,9.30
2017-11-23T16:33:54.332Z,10.00
2017-11-23T16:36:23.567Z,9.13
2017-11-23T16:38:51.348Z,9.00
2017-11-23T16:41:18.681Z,8.63
2017-11-23T16:43:49.887Z,8.40
2017-11-23T16:49:30.920Z,7.27
2017-11-23T16:52:16.002Z,8.33
2017-11-23T16:54:57.891Z,7.70
2017-11-23T16:57:26.618Z,7.60
2017-11-23T17:00:12.753Z,7.80
2017-11-23T17:02:45.106Z,5.87
2017-11-23T17:05:17.309Z,6.60
2017-11-23T17:07:49.766Z,5.30
2017-11-23T17:10:22.137Z,4.93
2017-11-23T17:13:00.471Z,4.93
2017-11-23T17:15:32.699Z,4.60
2017-11-23T17:18:01.826Z,4.00
2017-11-23T17:20:28.775Z,5.07
2017-11-23T17:22:54.971Z,4.10
2017-11-23T17:25:21.235Z,4.50
2017-11-23T17:27:48.145Z,4.43
2017-11-23T17:30:14.387Z,3.60
2017-11-23T17:32:42.198Z,2.90
2017-11-23T17:35:08.390Z,2.43
2017-11-23T17:37:34.578Z,2.43
2017-11-23T17:40:00.814Z,2.03
2017-11-23T17:42:27.107Z,1.20
2017-11-23T17:44:53.307Z,1.17
2017-11-23T17:47:19.528Z,2.17
2017-11-23T17:49:47.774Z,2.30
2017-11-23T17:52:13.974Z,1.57
2017-11-23T17:54:40.166Z,1.40
2017-11-23T17:57:06.362Z,1.27
2017-11-23T17:59:33.395Z,1.70
2017-11-23T18:01:59.605Z,1.70
2017-11-23T18:04:25.815Z,1.80
2017-11-23T18:06:52.034Z,1.27
2017-11-23T18:09:18.242Z,2.00
2017-11-23T18:11:44.498Z,1.70
2017-11-23T18:14:10.679Z,1.67
2017-11-23T18:16:37.814Z,1.60
2017-11-23T18:19:04.025Z,1.83
2017-11-23T18:21:31.711Z,1.90
2017-11-23T18:23:57.924Z,1.57
2017-11-23T18:26:24.442Z,2.30
2017-11-23T18:28:50.636Z,2.20
2017-11-23T18:31:17.535Z,2.17
2017-11-23T18:33:43.695Z,2.90
2017-11-23T18:36:10.654Z,1.90
2017-11-23T18:38:36.913Z,2.17
2017-11-23T18:41:03.920Z,2.00
2017-11-23T18:43:31.077Z,2.37
2017-11-23T18:45:57.316Z,2.20
2017-11-23T18:48:23.588Z,2.07
2017-11-23T18:50:50.539Z,1.90
2017-11-23T18:53:17.489Z,2.20
2017-11-23T18:55:43.677Z,3.10
2017-11-23T18:58:09.859Z,2.73
2017-11-23T19:00:36.090Z,2.20
2017-11-23T19:03:03.149Z,2.60
2017-11-23T19:05:30.110Z,3.57
2017-11-23T19:07:57.080Z,3.20
2017-11-23T19:10:23.396Z,3.20
2017-11-23T19:12:50.446Z,2.70
2017-11-23T19:15:16.908Z,1.90
2017-11-23T19:17:43.148Z,2.13
2017-11-23T19:20:11.055Z,3.23
2017-11-23T19:22:39.038Z,2.43
2017-11-23T19:25:05.287Z,2.50
2017-11-23T19:27:31.639Z,7.90
2017-11-23T19:29:58.618Z,8.20
2017-11-23T19:32:24.829Z,2.73
2017-11-23T19:34:51.802Z,3.23
2017-11-23T19:37:18.894Z,2.63
2017-11-23T19:39:45.078Z,2.40
2017-11-23T19:42:12.010Z,3.00
2017-11-23T19:44:38.420Z,2.50
2017-11-23T19:47:04.635Z,2.70
2017-11-23T19:49:30.873Z,2.80
2017-11-23T19:51:57.113Z,2.33
2017-11-23T19:54:23.304Z,2.47
2017-11-23T19:56:50.206Z,2.27
2017-11-23T19:59:16.389Z,2.57
2017-11-23T20:01:43.277Z,2.27
2017-11-23T20:04:09.486Z,2.50
2017-11-23T20:06:35.783Z,2.07
2017-11-23T20:09:01.968Z,2.37
2017-11-23T20:11:28.139Z,3.43
2017-11-23T20:13:54.373Z,2.20
2017-11-23T20:16:22.014Z,3.70
2017-11-23T20:18:48.208Z,2.50
2017-11-23T20:21:15.321Z,2.73
2017-11-23T20:23:41.499Z,2.80
2017-11-23T20:26:07.679Z,2.97
2017-11-23T20:28:34.015Z,3.30
2017-11-23T20:31:00.964Z,2.70
2017-11-23T20:33:27.275Z,3.20
2017-11-23T20:35:53.499Z,3.80
2017-11-23T20:38:19.685Z,3.10
2017-11-23T20:40:45.880Z,3.00
2017-11-23T20:43:13.078Z,2.67
2017-11-23T20:45:39.479Z,2.73
2017-11-23T20:48:05.706Z,2.77
2017-11-23T20:50:31.888Z,3.00
2017-11-23T20:52:58.826Z,5.43
2017-11-23T20:55:28.093Z,4.73
2017-11-23T20:57:55.053Z,3.03
2017-11-23T21:00:24.918Z,3.23
2017-11-23T21:02:51.091Z,4.10
2017-11-23T21:05:18.111Z,2.67
2017-11-23T21:07:46.826Z,3.77
2017-11-23T21:10:13.730Z,3.37
2017-11-23T21:12:41.290Z,3.00
2017-11-23T21:15:08.958Z,3.10
2017-11-23T21:17:37.994Z,2.80
2017-11-23T21:20:06.166Z,3.50
2017-11-23T21:22:33.079Z,2.60
2017-11-23T21:25:00.002Z,3.60
2017-11-23T21:27:26.194Z,3.50
2017-11-23T21:29:52.431Z,3.57
2017-11-23T21:32:18.597Z,2.77
2017-11-23T21:34:44.840Z,3.00
2017-11-23T21:37:11.090Z,2.83
2017-11-23T21:39:37.270Z,3.13
2017-11-23T21:42:04.231Z,3.13
2017-11-23T21:44:30.457Z,2.93
2017-11-23T21:46:56.768Z,3.07
2017-11-23T21:49:22.961Z,2.97
2017-11-23T21:51:49.189Z,3.47
2017-11-23T21:54:23.981Z,2.77
2017-11-23T21:56:50.197Z,4.37
2017-11-23T21:59:17.507Z,3.80
2017-11-23T22:01:44.264Z,3.20
2017-11-23T22:04:21.707Z,2.53
2017-11-23T22:06:48.713Z,3.23
2017-11-23T22:09:15.517Z,2.57
2017-11-23T22:11:41.730Z,2.50
2017-11-23T22:14:08.002Z,2.10
2017-11-23T22:16:34.193Z,3.13
2017-11-23T22:19:00.384Z,3.03
2017-11-23T22:21:26.642Z,2.60
2017-11-23T22:23:52.839Z,2.97
2017-11-23T22:26:19.785Z,2.27
2017-11-23T22:28:46.701Z,2.27
2017-11-23T22:31:14.922Z,2.93
2017-11-23T22:33:48.230Z,2.23
2017-11-23T22:36:19.207Z,2.33
2017-11-23T22:38:45.522Z,2.70
2017-11-23T22:41:11.729Z,2.60
2017-11-23T22:43:37.963Z,2.63
2017-11-23T22:46:04.178Z,1.73
2017-11-23T22:48:30.654Z,2.60
2017-11-23T22:50:56.867Z,2.37
2017-11-23T22:53:23.770Z,2.93
2017-11-23T22:55:49.957Z,2.77
2017-11-23T22:58:16.905Z,2.60
2017-11-23T23:00:43.087Z,1.80
2017-11-23T23:03:09.257Z,2.50
2017-11-23T23:05:35.496Z,2.67
2017-11-23T23:08:02.401Z,3.13
2017-11-23T23:10:28.632Z,2.17
2017-11-23T23:12:54.863Z,2.10
2017-11-23T23:15:21.039Z,2.27
2017-11-23T23:17:47.225Z,2.53
2017-11-23T23:20:13.427Z,2.77
2017-11-23T23:22:39.618Z,2.60
2017-11-23T23:25:05.834Z,3.10
2017-11-23T23:27:32.051Z,2.20
2017-11-23T23:29:58.218Z,2.13
2017-11-23T23:32:24.487Z,2.43
2017-11-23T23:34:51.467Z,3.10
2017-11-23T23:37:17.661Z,3.20
2017-11-23T23:39:43.833Z,2.87
2017-11-23T23:42:10.030Z,2.50
2017-11-23T23:44:36.991Z,2.50
2017-11-23T23:47:03.901Z,2.80
2017-11-23T23:49:30.883Z,2.43
2017-11-23T23:51:57.815Z,2.23
2017-11-23T23:54:24.007Z,2.33
2017-11-23T23:56:50.194Z,2.63
2017-11-23T23:59:16.379Z,2.40
